Pagrindinis puslapis
METAR-TAF:

METAR-TAF

Oro uostai :

Holginas, Kuba

platuma: 20-47N, ilguma: 076-19W, Aukštis: 106 m

Dabartinis oras

Ataskaita buvo paskelbta 1 valandą ir 56 minutes, ne 02:50 UTC
Vėjas 6 kt iš Rytų
Temperatūra 26°C
Drėgmė 79%
Slėgis 1017 hPa
Matomumas: 9000 m

METAR: MUHG 060250Z 08006KT 9000 NSC 26/22 Q1017

Laikas: 00:46 (04:46 UTC)

Prognozė

Ataskaita buvo paskelbta 5 valandos ir 46 minutes, ne 23:00 UTC
Prognozė galioja nuo 06 metu 00 UTC su 06 metu 24 UTC
Vėjas 3 kt nuo kintamojo kryptimis
Matomumas: 9000 m
Mažai debesys ne aukštis 3000 ft
Tapsmas
nuo 06 metu 13 UTC su 06 metu 15 UTC
Vėjas 12 kt iš Rytų/Šiaurės Rytų
Išsisklaidę debesys ne aukštis 3000 ft
Laikinai
nuo 06 metu 18 UTC su 06 metu 24 UTC
Mažai debesys ne aukštis 1800 ft, Liūtiniai kamuoliniai debesys.
Su prošvaistėmis ne aukštis 2000 ft

TAF: MUHG 052300Z 0600/0624 VRB03KT 9000 FEW030 BECMG 0613/0615 07012KT SCT030 TEMPO 0618/0624 FEW018CB BKN020

Orai ataskaitas ir orų prognozės (METAR, TAF).

turimą stotys yra geltonos ir raudonos taškus žemėlapyje.

Perkelti pele per norėdami pamatyti stoties vardą.

Tada spustelėkite, norėdami matyti oro stebėjimo ir prognozės.

Norėdami pakeisti žemėlapį: spustelėkite ant žalios mygtukų su juodo kryžiaus žemyn,; žalią mygtuką su brūkšneliu, jei norite nutolinti; arba žalių rodyklių gretimoms žemėlapius.


METAR-TAF: